sensor_id;sensor_type;location;lat;lon;timestamp;P1;durP1;ratioP1;P2;durP2;ratioP2
68714;SDS011;55692;53.356;10.030;2023-12-04T00:01:35;35.10;;;13.27;;
68714;SDS011;55692;53.356;10.030;2023-12-04T00:04:08;35.15;;;14.23;;
68714;SDS011;55692;53.356;10.030;2023-12-04T00:06:34;34.95;;;14.30;;
68714;SDS011;55692;53.356;10.030;2023-12-04T00:09:00;39.35;;;14.52;;
68714;SDS011;55692;53.356;10.030;2023-12-04T00:11:26;34.00;;;14.48;;
68714;SDS011;55692;53.356;10.030;2023-12-04T00:13:52;42.33;;;14.57;;
68714;SDS011;55692;53.356;10.030;2023-12-04T00:16:18;33.75;;;14.07;;
68714;SDS011;55692;53.356;10.030;2023-12-04T00:18:44;36.72;;;15.05;;
68714;SDS011;55692;53.356;10.030;2023-12-04T00:21:10;36.42;;;14.75;;
68714;SDS011;55692;53.356;10.030;2023-12-04T00:23:36;37.30;;;13.82;;
68714;SDS011;55692;53.356;10.030;2023-12-04T00:26:02;34.17;;;15.20;;
68714;SDS011;55692;53.356;10.030;2023-12-04T00:28:28;30.48;;;12.43;;
68714;SDS011;55692;53.356;10.030;2023-12-04T00:30:54;39.47;;;15.05;;
68714;SDS011;55692;53.356;10.030;2023-12-04T00:33:20;33.50;;;14.38;;
68714;SDS011;55692;53.356;10.030;2023-12-04T00:35:46;36.38;;;14.35;;
68714;SDS011;55692;53.356;10.030;2023-12-04T00:38:12;36.42;;;14.27;;
68714;SDS011;55692;53.356;10.030;2023-12-04T00:40:38;34.63;;;14.63;;
68714;SDS011;55692;53.356;10.030;2023-12-04T00:43:04;42.20;;;14.73;;
68714;SDS011;55692;53.356;10.030;2023-12-04T00:45:30;34.40;;;14.13;;
68714;SDS011;55692;53.356;10.030;2023-12-04T00:47:56;36.28;;;14.43;;
68714;SDS011;55692;53.356;10.030;2023-12-04T00:50:22;31.08;;;14.05;;
68714;SDS011;55692;53.356;10.030;2023-12-04T00:52:48;30.95;;;12.63;;
68714;SDS011;55692;53.356;10.030;2023-12-04T00:55:14;33.45;;;13.13;;
68714;SDS011;55692;53.356;10.030;2023-12-04T00:57:40;28.48;;;12.80;;
68714;SDS011;55692;53.356;10.030;2023-12-04T01:00:06;30.65;;;13.20;;
68714;SDS011;55692;53.356;10.030;2023-12-04T01:02:32;31.60;;;13.80;;
68714;SDS011;55692;53.356;10.030;2023-12-04T01:04:59;36.55;;;14.13;;
68714;SDS011;55692;53.356;10.030;2023-12-04T01:07:25;33.55;;;13.48;;
68714;SDS011;55692;53.356;10.030;2023-12-04T01:09:51;33.80;;;13.63;;
68714;SDS011;55692;53.356;10.030;2023-12-04T01:12:17;34.38;;;13.90;;
68714;SDS011;55692;53.356;10.030;2023-12-04T01:14:42;36.20;;;15.35;;
68714;SDS011;55692;53.356;10.030;2023-12-04T01:17:09;34.58;;;14.30;;
68714;SDS011;55692;53.356;10.030;2023-12-04T01:19:35;37.70;;;15.93;;
68714;SDS011;55692;53.356;10.030;2023-12-04T01:22:01;31.10;;;14.45;;
68714;SDS011;55692;53.356;10.030;2023-12-04T01:24:27;39.45;;;17.00;;
68714;SDS011;55692;53.356;10.030;2023-12-04T01:26:53;33.40;;;14.13;;
68714;SDS011;55692;53.356;10.030;2023-12-04T01:29:19;39.45;;;15.52;;
68714;SDS011;55692;53.356;10.030;2023-12-04T01:31:44;37.72;;;14.98;;
68714;SDS011;55692;53.356;10.030;2023-12-04T01:34:11;33.80;;;14.85;;
68714;SDS011;55692;53.356;10.030;2023-12-04T01:36:40;33.83;;;14.32;;
68714;SDS011;55692;53.356;10.030;2023-12-04T01:39:06;33.72;;;14.18;;
68714;SDS011;55692;53.356;10.030;2023-12-04T01:41:32;36.13;;;15.05;;
68714;SDS011;55692;53.356;10.030;2023-12-04T01:43:58;33.83;;;14.05;;
68714;SDS011;55692;53.356;10.030;2023-12-04T01:46:24;29.73;;;13.85;;
68714;SDS011;55692;53.356;10.030;2023-12-04T01:48:50;35.90;;;14.77;;
68714;SDS011;55692;53.356;10.030;2023-12-04T01:51:17;35.20;;;14.57;;
68714;SDS011;55692;53.356;10.030;2023-12-04T01:53:44;31.90;;;13.23;;
68714;SDS011;55692;53.356;10.030;2023-12-04T01:56:11;30.27;;;13.95;;
68714;SDS011;55692;53.356;10.030;2023-12-04T01:58:37;38.53;;;14.15;;
68714;SDS011;55692;53.356;10.030;2023-12-04T02:01:04;40.20;;;15.50;;
68714;SDS011;55692;53.356;10.030;2023-12-04T02:03:30;39.00;;;15.45;;
68714;SDS011;55692;53.356;10.030;2023-12-04T02:05:57;34.63;;;15.27;;
68714;SDS011;55692;53.356;10.030;2023-12-04T02:08:25;37.35;;;14.40;;
68714;SDS011;55692;53.356;10.030;2023-12-04T02:10:52;32.08;;;13.63;;
68714;SDS011;55692;53.356;10.030;2023-12-04T02:13:18;30.35;;;13.15;;
68714;SDS011;55692;53.356;10.030;2023-12-04T02:15:44;30.85;;;13.40;;
68714;SDS011;55692;53.356;10.030;2023-12-04T02:18:12;34.83;;;13.57;;
68714;SDS011;55692;53.356;10.030;2023-12-04T02:20:38;30.88;;;13.32;;
68714;SDS011;55692;53.356;10.030;2023-12-04T02:23:04;32.10;;;14.15;;
68714;SDS011;55692;53.356;10.030;2023-12-04T02:25:30;34.53;;;13.32;;
68714;SDS011;55692;53.356;10.030;2023-12-04T02:27:58;33.58;;;13.70;;
68714;SDS011;55692;53.356;10.030;2023-12-04T02:30:25;34.03;;;13.65;;
68714;SDS011;55692;53.356;10.030;2023-12-04T02:32:51;33.97;;;14.32;;
68714;SDS011;55692;53.356;10.030;2023-12-04T02:35:20;36.45;;;14.38;;
68714;SDS011;55692;53.356;10.030;2023-12-04T02:37:47;33.78;;;13.70;;
68714;SDS011;55692;53.356;10.030;2023-12-04T02:40:13;36.08;;;13.80;;
68714;SDS011;55692;53.356;10.030;2023-12-04T02:42:39;32.03;;;13.30;;
68714;SDS011;55692;53.356;10.030;2023-12-04T02:45:05;33.38;;;13.50;;
68714;SDS011;55692;53.356;10.030;2023-12-04T02:47:31;38.78;;;14.95;;
68714;SDS011;55692;53.356;10.030;2023-12-04T02:49:57;35.10;;;13.75;;
68714;SDS011;55692;53.356;10.030;2023-12-04T02:52:23;31.60;;;12.85;;
68714;SDS011;55692;53.356;10.030;2023-12-04T02:54:49;34.25;;;13.50;;
68714;SDS011;55692;53.356;10.030;2023-12-04T02:57:15;31.60;;;12.88;;
68714;SDS011;55692;53.356;10.030;2023-12-04T02:59:41;32.45;;;13.98;;
68714;SDS011;55692;53.356;10.030;2023-12-04T03:02:07;35.00;;;13.52;;
68714;SDS011;55692;53.356;10.030;2023-12-04T03:04:34;33.25;;;13.10;;
68714;SDS011;55692;53.356;10.030;2023-12-04T03:07:00;37.15;;;15.30;;
68714;SDS011;55692;53.356;10.030;2023-12-04T03:09:26;33.58;;;12.63;;
68714;SDS011;55692;53.356;10.030;2023-12-04T03:11:52;28.00;;;12.13;;
68714;SDS011;55692;53.356;10.030;2023-12-04T03:14:18;29.13;;;12.63;;
68714;SDS011;55692;53.356;10.030;2023-12-04T03:16:44;32.55;;;12.85;;
68714;SDS011;55692;53.356;10.030;2023-12-04T03:19:10;32.08;;;13.20;;
68714;SDS011;55692;53.356;10.030;2023-12-04T03:21:36;29.20;;;12.88;;
68714;SDS011;55692;53.356;10.030;2023-12-04T03:24:02;25.98;;;12.15;;
68714;SDS011;55692;53.356;10.030;2023-12-04T03:26:28;28.58;;;12.75;;
68714;SDS011;55692;53.356;10.030;2023-12-04T03:28:54;27.77;;;11.77;;
68714;SDS011;55692;53.356;10.030;2023-12-04T03:31:21;30.80;;;12.65;;
68714;SDS011;55692;53.356;10.030;2023-12-04T03:33:47;27.45;;;12.43;;
68714;SDS011;55692;53.356;10.030;2023-12-04T03:36:13;27.88;;;13.00;;
68714;SDS011;55692;53.356;10.030;2023-12-04T03:38:39;28.75;;;12.73;;
68714;SDS011;55692;53.356;10.030;2023-12-04T03:41:05;25.02;;;11.48;;
68714;SDS011;55692;53.356;10.030;2023-12-04T03:43:32;32.47;;;12.82;;
68714;SDS011;55692;53.356;10.030;2023-12-04T03:45:58;27.80;;;12.65;;
68714;SDS011;55692;53.356;10.030;2023-12-04T03:48:24;34.63;;;13.65;;
68714;SDS011;55692;53.356;10.030;2023-12-04T03:50:50;29.85;;;12.80;;
68714;SDS011;55692;53.356;10.030;2023-12-04T03:53:16;32.70;;;13.95;;
68714;SDS011;55692;53.356;10.030;2023-12-04T03:55:42;28.38;;;12.63;;
68714;SDS011;55692;53.356;10.030;2023-12-04T03:58:08;33.63;;;12.88;;
68714;SDS011;55692;53.356;10.030;2023-12-04T04:00:34;30.52;;;14.15;;
68714;SDS011;55692;53.356;10.030;2023-12-04T04:03:00;32.05;;;13.68;;
68714;SDS011;55692;53.356;10.030;2023-12-04T04:05:26;30.52;;;13.68;;
68714;SDS011;55692;53.356;10.030;2023-12-04T04:07:56;29.17;;;13.70;;
68714;SDS011;55692;53.356;10.030;2023-12-04T04:10:22;30.85;;;13.00;;
68714;SDS011;55692;53.356;10.030;2023-12-04T04:12:48;33.95;;;13.15;;
68714;SDS011;55692;53.356;10.030;2023-12-04T04:15:14;30.10;;;12.93;;
68714;SDS011;55692;53.356;10.030;2023-12-04T04:17:40;35.28;;;14.23;;
68714;SDS011;55692;53.356;10.030;2023-12-04T04:20:06;31.73;;;14.10;;
68714;SDS011;55692;53.356;10.030;2023-12-04T04:22:32;31.02;;;13.18;;
68714;SDS011;55692;53.356;10.030;2023-12-04T04:25:02;32.60;;;13.52;;
68714;SDS011;55692;53.356;10.030;2023-12-04T04:27:28;37.80;;;14.75;;
68714;SDS011;55692;53.356;10.030;2023-12-04T04:29:54;34.55;;;13.48;;
68714;SDS011;55692;53.356;10.030;2023-12-04T04:32:20;34.13;;;14.07;;
68714;SDS011;55692;53.356;10.030;2023-12-04T04:34:46;35.50;;;15.13;;
68714;SDS011;55692;53.356;10.030;2023-12-04T04:37:12;31.05;;;14.65;;
68714;SDS011;55692;53.356;10.030;2023-12-04T04:39:39;27.15;;;13.02;;
68714;SDS011;55692;53.356;10.030;2023-12-04T04:42:05;29.42;;;13.98;;
68714;SDS011;55692;53.356;10.030;2023-12-04T04:44:31;34.22;;;14.32;;
68714;SDS011;55692;53.356;10.030;2023-12-04T04:46:57;33.92;;;13.85;;
68714;SDS011;55692;53.356;10.030;2023-12-04T04:49:23;32.00;;;14.25;;
68714;SDS011;55692;53.356;10.030;2023-12-04T04:51:49;34.28;;;14.95;;
68714;SDS011;55692;53.356;10.030;2023-12-04T04:54:15;28.13;;;12.88;;
68714;SDS011;55692;53.356;10.030;2023-12-04T04:56:41;32.05;;;13.50;;
68714;SDS011;55692;53.356;10.030;2023-12-04T04:59:07;32.53;;;13.70;;
68714;SDS011;55692;53.356;10.030;2023-12-04T05:01:33;30.70;;;13.85;;
68714;SDS011;55692;53.356;10.030;2023-12-04T05:03:59;31.60;;;12.75;;
68714;SDS011;55692;53.356;10.030;2023-12-04T05:06:25;29.73;;;12.57;;
68714;SDS011;55692;53.356;10.030;2023-12-04T05:08:51;30.95;;;13.77;;
68714;SDS011;55692;53.356;10.030;2023-12-04T05:11:18;30.60;;;13.55;;
68714;SDS011;55692;53.356;10.030;2023-12-04T05:13:44;31.67;;;13.50;;
68714;SDS011;55692;53.356;10.030;2023-12-04T05:16:10;31.38;;;13.55;;
68714;SDS011;55692;53.356;10.030;2023-12-04T05:18:38;27.08;;;12.55;;
68714;SDS011;55692;53.356;10.030;2023-12-04T05:21:07;29.65;;;12.93;;
68714;SDS011;55692;53.356;10.030;2023-12-04T05:23:34;25.95;;;11.00;;
68714;SDS011;55692;53.356;10.030;2023-12-04T05:26:00;25.33;;;11.98;;
68714;SDS011;55692;53.356;10.030;2023-12-04T05:28:26;26.60;;;11.68;;
68714;SDS011;55692;53.356;10.030;2023-12-04T05:30:52;28.67;;;12.27;;
68714;SDS011;55692;53.356;10.030;2023-12-04T05:33:18;27.90;;;12.13;;
68714;SDS011;55692;53.356;10.030;2023-12-04T05:35:44;26.50;;;11.93;;
68714;SDS011;55692;53.356;10.030;2023-12-04T05:38:10;27.90;;;11.80;;
68714;SDS011;55692;53.356;10.030;2023-12-04T05:40:36;27.33;;;11.68;;
68714;SDS011;55692;53.356;10.030;2023-12-04T05:43:02;26.23;;;10.90;;
68714;SDS011;55692;53.356;10.030;2023-12-04T05:45:28;25.13;;;10.70;;
68714;SDS011;55692;53.356;10.030;2023-12-04T05:47:54;25.40;;;11.23;;
68714;SDS011;55692;53.356;10.030;2023-12-04T05:50:20;29.23;;;13.00;;
68714;SDS011;55692;53.356;10.030;2023-12-04T05:52:46;26.83;;;12.43;;
68714;SDS011;55692;53.356;10.030;2023-12-04T05:55:12;33.40;;;12.75;;
68714;SDS011;55692;53.356;10.030;2023-12-04T05:57:38;29.20;;;11.35;;
68714;SDS011;55692;53.356;10.030;2023-12-04T06:00:05;27.40;;;11.98;;
68714;SDS011;55692;53.356;10.030;2023-12-04T06:05:03;27.00;;;11.45;;
68714;SDS011;55692;53.356;10.030;2023-12-04T06:07:29;28.20;;;11.82;;
68714;SDS011;55692;53.356;10.030;2023-12-04T06:09:55;31.25;;;12.15;;
68714;SDS011;55692;53.356;10.030;2023-12-04T06:12:21;28.45;;;12.40;;
68714;SDS011;55692;53.356;10.030;2023-12-04T06:14:47;31.23;;;12.82;;
68714;SDS011;55692;53.356;10.030;2023-12-04T06:17:13;31.52;;;12.93;;
68714;SDS011;55692;53.356;10.030;2023-12-04T06:19:39;29.48;;;13.00;;
68714;SDS011;55692;53.356;10.030;2023-12-04T06:22:05;26.85;;;12.48;;
68714;SDS011;55692;53.356;10.030;2023-12-04T06:24:32;30.27;;;13.23;;
68714;SDS011;55692;53.356;10.030;2023-12-04T06:26:58;26.35;;;11.65;;
68714;SDS011;55692;53.356;10.030;2023-12-04T06:29:24;30.40;;;12.93;;
68714;SDS011;55692;53.356;10.030;2023-12-04T06:31:50;37.53;;;14.13;;
68714;SDS011;55692;53.356;10.030;2023-12-04T06:34:17;30.50;;;13.77;;
68714;SDS011;55692;53.356;10.030;2023-12-04T06:36:43;31.20;;;12.88;;
68714;SDS011;55692;53.356;10.030;2023-12-04T06:39:09;29.63;;;13.00;;
68714;SDS011;55692;53.356;10.030;2023-12-04T06:41:39;27.65;;;12.63;;
68714;SDS011;55692;53.356;10.030;2023-12-04T06:44:05;32.80;;;13.80;;
68714;SDS011;55692;53.356;10.030;2023-12-04T06:46:32;29.33;;;13.52;;
68714;SDS011;55692;53.356;10.030;2023-12-04T06:49:00;32.15;;;13.05;;
68714;SDS011;55692;53.356;10.030;2023-12-04T06:51:26;32.47;;;12.63;;
68714;SDS011;55692;53.356;10.030;2023-12-04T06:53:52;28.98;;;12.00;;
68714;SDS011;55692;53.356;10.030;2023-12-04T06:56:18;31.98;;;13.52;;
68714;SDS011;55692;53.356;10.030;2023-12-04T06:58:44;31.85;;;12.70;;
68714;SDS011;55692;53.356;10.030;2023-12-04T07:01:10;33.05;;;13.23;;
68714;SDS011;55692;53.356;10.030;2023-12-04T07:03:36;31.75;;;13.27;;
68714;SDS011;55692;53.356;10.030;2023-12-04T07:06:03;32.08;;;13.38;;
68714;SDS011;55692;53.356;10.030;2023-12-04T07:08:29;35.05;;;14.18;;
68714;SDS011;55692;53.356;10.030;2023-12-04T07:10:55;35.13;;;13.77;;
68714;SDS011;55692;53.356;10.030;2023-12-04T07:13:21;32.50;;;13.20;;
68714;SDS011;55692;53.356;10.030;2023-12-04T07:15:47;31.17;;;13.48;;
68714;SDS011;55692;53.356;10.030;2023-12-04T07:18:13;34.90;;;14.27;;
68714;SDS011;55692;53.356;10.030;2023-12-04T07:20:39;32.72;;;13.93;;
68714;SDS011;55692;53.356;10.030;2023-12-04T07:23:05;30.85;;;12.98;;
68714;SDS011;55692;53.356;10.030;2023-12-04T07:25:31;37.53;;;14.57;;
68714;SDS011;55692;53.356;10.030;2023-12-04T07:27:57;37.10;;;14.40;;
68714;SDS011;55692;53.356;10.030;2023-12-04T07:30:23;38.90;;;15.10;;
68714;SDS011;55692;53.356;10.030;2023-12-04T07:32:49;34.35;;;14.48;;
68714;SDS011;55692;53.356;10.030;2023-12-04T07:35:16;32.60;;;13.80;;
68714;SDS011;55692;53.356;10.030;2023-12-04T07:37:43;37.53;;;14.25;;
68714;SDS011;55692;53.356;10.030;2023-12-04T07:40:09;29.92;;;13.13;;
68714;SDS011;55692;53.356;10.030;2023-12-04T07:42:35;39.45;;;13.93;;
68714;SDS011;55692;53.356;10.030;2023-12-04T07:45:02;29.55;;;13.45;;
68714;SDS011;55692;53.356;10.030;2023-12-04T07:47:28;33.70;;;14.38;;
68714;SDS011;55692;53.356;10.030;2023-12-04T07:49:54;31.75;;;13.63;;
68714;SDS011;55692;53.356;10.030;2023-12-04T07:52:20;31.08;;;13.70;;
68714;SDS011;55692;53.356;10.030;2023-12-04T07:54:46;32.95;;;13.90;;
68714;SDS011;55692;53.356;10.030;2023-12-04T07:57:12;38.88;;;15.63;;
68714;SDS011;55692;53.356;10.030;2023-12-04T07:59:38;35.10;;;14.00;;
68714;SDS011;55692;53.356;10.030;2023-12-04T08:02:04;32.90;;;13.75;;
68714;SDS011;55692;53.356;10.030;2023-12-04T08:04:29;29.27;;;12.70;;
68714;SDS011;55692;53.356;10.030;2023-12-04T08:06:55;33.60;;;13.18;;
68714;SDS011;55692;53.356;10.030;2023-12-04T08:09:21;32.30;;;13.38;;
68714;SDS011;55692;53.356;10.030;2023-12-04T08:11:47;31.25;;;13.95;;
68714;SDS011;55692;53.356;10.030;2023-12-04T08:14:13;31.73;;;13.52;;
68714;SDS011;55692;53.356;10.030;2023-12-04T08:16:41;28.67;;;13.27;;
68714;SDS011;55692;53.356;10.030;2023-12-04T08:19:07;37.88;;;14.45;;
68714;SDS011;55692;53.356;10.030;2023-12-04T08:21:33;31.10;;;12.57;;
68714;SDS011;55692;53.356;10.030;2023-12-04T08:23:59;41.38;;;16.88;;
68714;SDS011;55692;53.356;10.030;2023-12-04T08:26:25;31.30;;;13.80;;
68714;SDS011;55692;53.356;10.030;2023-12-04T08:28:51;36.53;;;15.27;;
68714;SDS011;55692;53.356;10.030;2023-12-04T08:31:17;38.53;;;15.70;;
68714;SDS011;55692;53.356;10.030;2023-12-04T08:33:44;31.85;;;13.95;;
68714;SDS011;55692;53.356;10.030;2023-12-04T08:36:10;37.03;;;15.85;;
68714;SDS011;55692;53.356;10.030;2023-12-04T08:38:36;34.78;;;13.75;;
68714;SDS011;55692;53.356;10.030;2023-12-04T08:41:03;34.97;;;14.40;;
68714;SDS011;55692;53.356;10.030;2023-12-04T08:43:29;31.23;;;13.68;;
68714;SDS011;55692;53.356;10.030;2023-12-04T08:45:55;32.10;;;14.43;;
68714;SDS011;55692;53.356;10.030;2023-12-04T08:48:21;34.55;;;14.85;;
68714;SDS011;55692;53.356;10.030;2023-12-04T08:50:47;32.90;;;14.43;;
68714;SDS011;55692;53.356;10.030;2023-12-04T08:53:13;35.60;;;14.32;;
68714;SDS011;55692;53.356;10.030;2023-12-04T08:55:40;35.63;;;14.32;;
68714;SDS011;55692;53.356;10.030;2023-12-04T08:58:06;28.85;;;13.98;;
68714;SDS011;55692;53.356;10.030;2023-12-04T09:00:32;33.33;;;13.05;;
68714;SDS011;55692;53.356;10.030;2023-12-04T09:02:58;31.25;;;13.95;;
68714;SDS011;55692;53.356;10.030;2023-12-04T09:05:24;33.58;;;13.65;;
68714;SDS011;55692;53.356;10.030;2023-12-04T09:07:50;30.15;;;13.68;;
68714;SDS011;55692;53.356;10.030;2023-12-04T09:10:16;29.58;;;13.75;;
68714;SDS011;55692;53.356;10.030;2023-12-04T09:12:42;33.78;;;14.55;;
68714;SDS011;55692;53.356;10.030;2023-12-04T09:15:08;35.30;;;15.60;;
68714;SDS011;55692;53.356;10.030;2023-12-04T09:17:34;35.13;;;15.00;;
68714;SDS011;55692;53.356;10.030;2023-12-04T09:20:00;35.50;;;14.95;;
68714;SDS011;55692;53.356;10.030;2023-12-04T09:22:26;30.30;;;13.60;;
68714;SDS011;55692;53.356;10.030;2023-12-04T09:24:53;33.58;;;14.35;;
68714;SDS011;55692;53.356;10.030;2023-12-04T09:27:19;35.80;;;14.52;;
68714;SDS011;55692;53.356;10.030;2023-12-04T09:29:46;33.17;;;13.57;;
68714;SDS011;55692;53.356;10.030;2023-12-04T09:32:11;37.50;;;15.35;;
68714;SDS011;55692;53.356;10.030;2023-12-04T09:34:37;35.65;;;15.00;;
68714;SDS011;55692;53.356;10.030;2023-12-04T09:37:04;30.67;;;13.77;;
68714;SDS011;55692;53.356;10.030;2023-12-04T09:39:30;32.50;;;13.82;;
68714;SDS011;55692;53.356;10.030;2023-12-04T09:41:56;32.85;;;14.13;;
68714;SDS011;55692;53.356;10.030;2023-12-04T09:44:22;27.80;;;12.82;;
68714;SDS011;55692;53.356;10.030;2023-12-04T09:46:50;27.42;;;13.32;;
68714;SDS011;55692;53.356;10.030;2023-12-04T09:49:16;29.65;;;12.88;;
68714;SDS011;55692;53.356;10.030;2023-12-04T09:51:43;29.65;;;12.68;;
68714;SDS011;55692;53.356;10.030;2023-12-04T09:54:09;27.25;;;12.30;;
68714;SDS011;55692;53.356;10.030;2023-12-04T09:56:35;27.52;;;12.50;;
68714;SDS011;55692;53.356;10.030;2023-12-04T09:59:02;27.30;;;12.65;;
68714;SDS011;55692;53.356;10.030;2023-12-04T10:01:31;24.17;;;12.05;;
68714;SDS011;55692;53.356;10.030;2023-12-04T10:03:58;24.25;;;12.05;;
68714;SDS011;55692;53.356;10.030;2023-12-04T10:06:27;29.13;;;13.02;;
68714;SDS011;55692;53.356;10.030;2023-12-04T10:08:56;25.25;;;12.25;;
68714;SDS011;55692;53.356;10.030;2023-12-04T10:11:25;28.05;;;11.98;;
68714;SDS011;55692;53.356;10.030;2023-12-04T10:13:55;23.15;;;10.93;;
68714;SDS011;55692;53.356;10.030;2023-12-04T10:16:33;23.52;;;12.00;;
68714;SDS011;55692;53.356;10.030;2023-12-04T10:19:22;21.15;;;11.07;;
68714;SDS011;55692;53.356;10.030;2023-12-04T10:21:50;24.83;;;11.88;;
68714;SDS011;55692;53.356;10.030;2023-12-04T10:24:26;22.77;;;10.88;;
68714;SDS011;55692;53.356;10.030;2023-12-04T10:26:53;19.80;;;10.43;;
68714;SDS011;55692;53.356;10.030;2023-12-04T10:29:19;27.40;;;12.02;;
68714;SDS011;55692;53.356;10.030;2023-12-04T10:31:45;23.40;;;11.13;;
68714;SDS011;55692;53.356;10.030;2023-12-04T10:34:13;25.55;;;11.13;;
68714;SDS011;55692;53.356;10.030;2023-12-04T10:36:39;22.13;;;11.10;;
68714;SDS011;55692;53.356;10.030;2023-12-04T10:39:05;21.15;;;10.43;;
68714;SDS011;55692;53.356;10.030;2023-12-04T10:41:31;23.27;;;10.85;;
68714;SDS011;55692;53.356;10.030;2023-12-04T10:43:57;25.27;;;11.80;;
68714;SDS011;55692;53.356;10.030;2023-12-04T10:46:24;20.75;;;10.48;;
68714;SDS011;55692;53.356;10.030;2023-12-04T10:48:50;21.88;;;10.95;;
68714;SDS011;55692;53.356;10.030;2023-12-04T10:51:16;22.13;;;10.85;;
68714;SDS011;55692;53.356;10.030;2023-12-04T10:53:43;23.90;;;10.82;;
68714;SDS011;55692;53.356;10.030;2023-12-04T10:56:10;19.30;;;9.95;;
68714;SDS011;55692;53.356;10.030;2023-12-04T10:58:36;19.13;;;9.70;;
68714;SDS011;55692;53.356;10.030;2023-12-04T11:01:04;19.27;;;9.82;;
68714;SDS011;55692;53.356;10.030;2023-12-04T11:03:37;22.60;;;11.20;;
68714;SDS011;55692;53.356;10.030;2023-12-04T11:06:07;22.75;;;11.57;;
68714;SDS011;55692;53.356;10.030;2023-12-04T11:08:35;23.90;;;11.00;;
68714;SDS011;55692;53.356;10.030;2023-12-04T11:11:02;26.95;;;13.48;;
68714;SDS011;55692;53.356;10.030;2023-12-04T11:13:32;20.15;;;10.82;;
68714;SDS011;55692;53.356;10.030;2023-12-04T11:16:14;27.13;;;10.57;;
68714;SDS011;55692;53.356;10.030;2023-12-04T11:18:43;19.25;;;10.00;;
68714;SDS011;55692;53.356;10.030;2023-12-04T11:21:09;21.73;;;10.48;;
68714;SDS011;55692;53.356;10.030;2023-12-04T11:23:36;21.58;;;10.40;;
68714;SDS011;55692;53.356;10.030;2023-12-04T11:26:03;20.90;;;9.88;;
68714;SDS011;55692;53.356;10.030;2023-12-04T11:28:30;18.63;;;8.32;;
68714;SDS011;55692;53.356;10.030;2023-12-04T11:30:57;17.80;;;9.63;;
68714;SDS011;55692;53.356;10.030;2023-12-04T11:33:23;17.15;;;8.68;;
68714;SDS011;55692;53.356;10.030;2023-12-04T11:35:50;21.88;;;10.10;;
68714;SDS011;55692;53.356;10.030;2023-12-04T11:38:16;21.77;;;10.57;;
68714;SDS011;55692;53.356;10.030;2023-12-04T11:40:42;18.98;;;9.77;;
68714;SDS011;55692;53.356;10.030;2023-12-04T11:43:27;18.73;;;9.68;;
68714;SDS011;55692;53.356;10.030;2023-12-04T11:46:09;19.95;;;8.88;;
68714;SDS011;55692;53.356;10.030;2023-12-04T11:48:36;18.83;;;9.15;;
68714;SDS011;55692;53.356;10.030;2023-12-04T11:51:02;18.33;;;9.55;;
68714;SDS011;55692;53.356;10.030;2023-12-04T11:53:29;20.27;;;9.43;;
68714;SDS011;55692;53.356;10.030;2023-12-04T11:55:55;18.92;;;9.30;;
68714;SDS011;55692;53.356;10.030;2023-12-04T11:58:24;17.40;;;9.50;;
68714;SDS011;55692;53.356;10.030;2023-12-04T12:00:51;17.75;;;9.63;;
68714;SDS011;55692;53.356;10.030;2023-12-04T12:03:20;18.65;;;9.68;;
68714;SDS011;55692;53.356;10.030;2023-12-04T12:05:46;18.15;;;9.05;;
68714;SDS011;55692;53.356;10.030;2023-12-04T12:08:14;20.52;;;9.70;;
68714;SDS011;55692;53.356;10.030;2023-12-04T12:10:42;21.65;;;10.50;;
68714;SDS011;55692;53.356;10.030;2023-12-04T12:13:09;20.55;;;10.95;;
68714;SDS011;55692;53.356;10.030;2023-12-04T12:15:36;20.23;;;10.05;;
68714;SDS011;55692;53.356;10.030;2023-12-04T12:18:02;21.55;;;10.88;;
68714;SDS011;55692;53.356;10.030;2023-12-04T12:20:29;20.33;;;11.00;;
68714;SDS011;55692;53.356;10.030;2023-12-04T12:22:55;22.50;;;11.13;;
68714;SDS011;55692;53.356;10.030;2023-12-04T12:25:21;22.60;;;10.73;;
68714;SDS011;55692;53.356;10.030;2023-12-04T12:27:47;23.45;;;11.60;;
68714;SDS011;55692;53.356;10.030;2023-12-04T12:30:13;23.02;;;11.30;;
68714;SDS011;55692;53.356;10.030;2023-12-04T12:32:40;25.08;;;11.93;;
68714;SDS011;55692;53.356;10.030;2023-12-04T12:35:06;22.40;;;10.82;;
68714;SDS011;55692;53.356;10.030;2023-12-04T12:37:37;20.75;;;10.88;;
68714;SDS011;55692;53.356;10.030;2023-12-04T12:40:04;20.05;;;11.27;;
68714;SDS011;55692;53.356;10.030;2023-12-04T12:42:30;19.70;;;10.13;;
68714;SDS011;55692;53.356;10.030;2023-12-04T12:44:59;22.55;;;10.60;;
68714;SDS011;55692;53.356;10.030;2023-12-04T12:47:26;23.70;;;11.00;;
68714;SDS011;55692;53.356;10.030;2023-12-04T12:49:52;21.55;;;10.95;;
68714;SDS011;55692;53.356;10.030;2023-12-04T12:52:18;23.88;;;11.18;;
68714;SDS011;55692;53.356;10.030;2023-12-04T12:54:45;29.70;;;14.65;;
68714;SDS011;55692;53.356;10.030;2023-12-04T12:57:12;22.38;;;10.23;;
68714;SDS011;55692;53.356;10.030;2023-12-04T12:59:38;52.75;;;24.77;;
68714;SDS011;55692;53.356;10.030;2023-12-04T13:02:05;30.92;;;14.68;;
68714;SDS011;55692;53.356;10.030;2023-12-04T13:04:35;28.10;;;13.90;;
68714;SDS011;55692;53.356;10.030;2023-12-04T13:07:01;21.40;;;10.18;;
68714;SDS011;55692;53.356;10.030;2023-12-04T13:09:28;25.88;;;12.60;;
68714;SDS011;55692;53.356;10.030;2023-12-04T13:11:54;23.80;;;11.32;;
68714;SDS011;55692;53.356;10.030;2023-12-04T13:14:20;25.58;;;11.95;;
68714;SDS011;55692;53.356;10.030;2023-12-04T13:16:46;21.45;;;10.80;;
68714;SDS011;55692;53.356;10.030;2023-12-04T13:19:12;21.48;;;10.98;;
68714;SDS011;55692;53.356;10.030;2023-12-04T13:21:38;20.95;;;10.30;;
68714;SDS011;55692;53.356;10.030;2023-12-04T13:24:04;22.45;;;10.90;;
68714;SDS011;55692;53.356;10.030;2023-12-04T13:26:33;24.88;;;12.07;;
68714;SDS011;55692;53.356;10.030;2023-12-04T13:28:59;22.55;;;11.10;;
68714;SDS011;55692;53.356;10.030;2023-12-04T13:31:26;23.75;;;11.07;;
68714;SDS011;55692;53.356;10.030;2023-12-04T13:33:52;24.67;;;11.75;;
68714;SDS011;55692;53.356;10.030;2023-12-04T13:36:18;25.88;;;12.82;;
68714;SDS011;55692;53.356;10.030;2023-12-04T13:38:44;22.73;;;11.77;;
68714;SDS011;55692;53.356;10.030;2023-12-04T13:41:10;20.27;;;10.07;;
68714;SDS011;55692;53.356;10.030;2023-12-04T13:43:55;23.67;;;11.40;;
68714;SDS011;55692;53.356;10.030;2023-12-04T13:46:24;23.75;;;11.80;;
68714;SDS011;55692;53.356;10.030;2023-12-04T13:48:51;24.98;;;10.93;;
68714;SDS011;55692;53.356;10.030;2023-12-04T13:51:17;20.13;;;10.85;;
68714;SDS011;55692;53.356;10.030;2023-12-04T13:53:44;29.85;;;12.93;;
68714;SDS011;55692;53.356;10.030;2023-12-04T13:56:14;25.50;;;11.35;;
68714;SDS011;55692;53.356;10.030;2023-12-04T13:58:46;25.08;;;12.52;;
68714;SDS011;55692;53.356;10.030;2023-12-04T14:01:14;23.15;;;10.50;;
68714;SDS011;55692;53.356;10.030;2023-12-04T14:03:47;23.60;;;10.73;;
68714;SDS011;55692;53.356;10.030;2023-12-04T14:06:13;20.85;;;10.15;;
68714;SDS011;55692;53.356;10.030;2023-12-04T14:08:40;24.83;;;12.35;;